Time;durP1;ratioP1;P1;durP2;ratioP2;P2;SDS_P1;SDS_P2;PMS_P1;PMS_P2;Temp;Humidity;BMP_temperature;BMP_pressure;BME280_temperature;BME280_humidity;BME280_pressure;Samples;Min_cycle;Max_cycle;Signal;HPM_P1;HPM_P2
2023/09/05 00:00:16;;;;;;;10.98;8.35;;;18.50;99.90;;;;;;5093049;28;20036;-76
2023/09/05 00:02:44;;;;;;;9.88;8.25;;;18.50;99.90;;;;;;5093998;28;20016;-74
2023/09/05 00:05:11;;;;;;;10.32;8.00;;;18.40;99.90;;;;;;5092667;28;20020;-74
2023/09/05 00:07:40;;;;;;;13.00;7.22;;;18.40;99.90;;;;;;5089839;28;20026;-76
2023/09/05 00:10:08;;;;;;;9.27;7.43;;;18.30;99.90;;;;;;5084742;28;20048;-75
2023/09/05 00:12:34;;;;;;;9.38;7.03;;;18.40;99.90;;;;;;5082840;28;20025;-75
2023/09/05 00:15:01;;;;;;;9.40;8.10;;;18.30;99.90;;;;;;5082462;28;20028;-73
2023/09/05 00:17:27;;;;;;;11.50;8.30;;;18.40;99.90;;;;;;5081221;28;20051;-74
2023/09/05 00:19:55;;;;;;;9.68;8.15;;;18.40;99.90;;;;;;5076843;28;20060;-74
2023/09/05 00:22:21;;;;;;;10.18;7.80;;;18.30;99.90;;;;;;5093155;28;20051;-75
2023/09/05 00:24:48;;;;;;;9.50;7.75;;;18.30;99.90;;;;;;5091411;28;20055;-74
2023/09/05 00:27:14;;;;;;;12.85;7.68;;;18.30;99.90;;;;;;5081914;28;20097;-74
2023/09/05 00:29:41;;;;;;;9.43;7.25;;;18.30;99.90;;;;;;5086487;28;20028;-74
2023/09/05 00:32:07;;;;;;;11.40;7.50;;;18.30;99.90;;;;;;5083902;28;20023;-74
2023/09/05 00:34:36;;;;;;;10.38;7.55;;;18.30;99.90;;;;;;5078474;28;20020;-74
2023/09/05 00:37:03;;;;;;;9.77;7.72;;;18.30;99.90;;;;;;5088121;28;20099;-74
2023/09/05 00:39:29;;;;;;;9.50;7.50;;;18.20;99.90;;;;;;5089122;28;20073;-75
2023/09/05 00:41:56;;;;;;;11.30;7.55;;;18.20;99.90;;;;;;5085147;28;20016;-75
2023/09/05 00:44:25;;;;;;;9.65;7.10;;;18.20;99.90;;;;;;5079469;28;20016;-75
2023/09/05 00:46:54;;;;;;;13.25;7.80;;;18.20;99.90;;;;;;5092792;28;20050;-75
2023/09/05 00:49:23;;;;;;;9.98;7.22;;;18.10;99.90;;;;;;5083943;28;20348;-75
2023/09/05 00:51:50;;;;;;;9.23;7.03;;;18.20;99.90;;;;;;5076926;28;20051;-75
2023/09/05 00:54:17;;;;;;;9.68;7.60;;;18.20;99.90;;;;;;5078435;28;20576;-75
2023/09/05 00:56:47;;;;;;;8.35;7.13;;;18.20;99.90;;;;;;5087549;28;20016;-74
2023/09/05 00:59:14;;;;;;;8.80;7.03;;;18.10;99.90;;;;;;5079736;28;20063;-74
2023/09/05 01:01:40;;;;;;;9.00;6.95;;;18.10;99.90;;;;;;5091334;28;20460;-75
2023/09/05 01:04:06;;;;;;;12.93;7.32;;;18.10;99.90;;;;;;5088899;28;20020;-75
2023/09/05 01:07:12;;;;;;;9.20;6.93;;;18.10;99.90;;;;;;5079489;28;20074;-74
2023/09/05 01:10:04;;;;;;;9.68;6.95;;;18.10;99.90;;;;;;5082721;28;20395;-75
2023/09/05 01:12:30;;;;;;;9.27;6.63;;;18.10;99.90;;;;;;5083405;28;20111;-75
2023/09/05 01:14:56;;;;;;;9.82;6.65;;;18.00;99.90;;;;;;5087518;28;20649;-75
2023/09/05 01:17:21;;;;;;;8.85;7.20;;;18.00;99.90;;;;;;5092262;28;20031;-74
2023/09/05 01:19:50;;;;;;;9.77;7.05;;;18.00;99.90;;;;;;5088363;28;20383;-75
2023/09/05 01:22:28;;;;;;;8.15;6.93;;;18.00;99.90;;;;;;5081459;28;20043;-75
2023/09/05 01:24:53;;;;;;;8.90;6.85;;;18.00;99.90;;;;;;5082487;28;20513;-75
2023/09/05 01:27:22;;;;;;;12.02;7.30;;;17.90;99.90;;;;;;5092645;28;20031;-75
2023/09/05 01:29:49;;;;;;;11.48;7.25;;;17.90;99.90;;;;;;5077245;28;20020;-75
2023/09/05 01:32:16;;;;;;;9.48;7.10;;;17.90;99.90;;;;;;5085759;28;20016;-75
2023/09/05 01:34:41;;;;;;;9.85;7.05;;;17.90;99.90;;;;;;5082537;28;20025;-75
2023/09/05 01:37:10;;;;;;;9.80;6.70;;;17.90;99.90;;;;;;5078687;28;20028;-74
2023/09/05 01:39:36;;;;;;;9.60;6.95;;;17.90;99.90;;;;;;5083180;28;20078;-75
2023/09/05 01:42:02;;;;;;;13.18;7.85;;;17.90;99.90;;;;;;5074543;28;20103;-75
2023/09/05 01:44:28;;;;;;;10.88;7.75;;;17.90;99.90;;;;;;5087980;28;20099;-75
2023/09/05 01:46:53;;;;;;;8.90;6.97;;;17.80;99.90;;;;;;5082835;28;20383;-75
2023/09/05 01:49:19;;;;;;;11.48;7.55;;;17.90;99.90;;;;;;5078998;28;20021;-75
2023/09/05 01:51:45;;;;;;;10.80;7.75;;;17.90;99.90;;;;;;5087192;28;20028;-74
2023/09/05 01:54:11;;;;;;;11.55;7.82;;;17.90;99.90;;;;;;5074046;28;20406;-75
2023/09/05 01:56:36;;;;;;;9.52;7.90;;;17.80;99.90;;;;;;5088533;28;20028;-74
2023/09/05 01:59:02;;;;;;;12.32;8.48;;;17.80;99.90;;;;;;5078453;28;20052;-75
2023/09/05 02:01:28;;;;;;;11.32;8.93;;;17.80;99.90;;;;;;5081922;28;20025;-75
2023/09/05 02:03:54;;;;;;;11.57;8.45;;;17.80;99.90;;;;;;5074578;28;20408;-75
2023/09/05 02:06:20;;;;;;;11.30;8.70;;;17.70;99.90;;;;;;5083416;28;20025;-75
2023/09/05 02:08:46;;;;;;;13.13;8.38;;;17.70;99.90;;;;;;5085873;28;20073;-75
2023/09/05 02:11:12;;;;;;;10.07;7.82;;;17.70;99.90;;;;;;5073894;28;20396;-74
2023/09/05 02:13:38;;;;;;;9.93;7.85;;;17.70;99.90;;;;;;5085705;28;20051;-75
2023/09/05 02:16:03;;;;;;;13.57;8.25;;;17.70;99.90;;;;;;5084635;28;20062;-75
2023/09/05 02:18:29;;;;;;;10.23;7.90;;;17.60;99.90;;;;;;5083599;28;20024;-74
2023/09/05 02:21:00;;;;;;;11.95;7.72;;;17.60;99.90;;;;;;5080570;28;20024;-74
2023/09/05 02:23:26;;;;;;;11.68;8.20;;;17.60;99.90;;;;;;5077051;28;20507;-75
2023/09/05 02:25:59;;;;;;;10.90;7.75;;;17.60;99.90;;;;;;5082037;28;20190;-75
2023/09/05 02:28:25;;;;;;;12.55;7.57;;;17.50;99.90;;;;;;5083496;28;20058;-75
2023/09/05 02:30:55;;;;;;;10.23;7.82;;;17.50;99.90;;;;;;5086673;28;20028;-75
2023/09/05 02:33:21;;;;;;;10.23;7.55;;;17.50;99.90;;;;;;5077614;28;20050;-75
2023/09/05 02:35:47;;;;;;;11.88;8.50;;;17.50;99.90;;;;;;5082024;28;20033;-75
2023/09/05 02:38:13;;;;;;;10.68;7.25;;;17.50;99.90;;;;;;5080824;28;20028;-75
2023/09/05 02:40:44;;;;;;;11.55;8.23;;;17.40;99.90;;;;;;5080224;28;20099;-75
2023/09/05 02:43:09;;;;;;;10.00;8.23;;;17.40;99.90;;;;;;5077837;28;20039;-74
2023/09/05 02:45:35;;;;;;;10.25;8.20;;;17.40;99.90;;;;;;5074289;28;20041;-74
2023/09/05 02:48:01;;;;;;;15.48;8.57;;;17.30;99.90;;;;;;5087272;28;20012;-75
2023/09/05 02:50:26;;;;;;;11.77;8.30;;;17.30;99.90;;;;;;5091685;28;20020;-75
2023/09/05 02:52:52;;;;;;;11.25;8.50;;;17.30;99.90;;;;;;5092384;28;20028;-74
2023/09/05 02:55:19;;;;;;;10.98;8.13;;;17.30;99.90;;;;;;5094470;28;20040;-75
2023/09/05 02:57:44;;;;;;;11.88;7.88;;;17.30;99.90;;;;;;5091842;28;20020;-74
2023/09/05 03:00:10;;;;;;;9.55;7.97;;;17.30;99.90;;;;;;5090185;28;20074;-75
2023/09/05 03:02:40;;;;;;;12.05;8.27;;;17.20;99.90;;;;;;5087445;28;20106;-75
2023/09/05 03:05:06;;;;;;;10.93;8.77;;;17.30;99.90;;;;;;5082882;28;20029;-75
2023/09/05 03:07:32;;;;;;;11.88;8.20;;;17.20;99.90;;;;;;5082231;28;20036;-74
2023/09/05 03:09:58;;;;;;;11.90;9.15;;;17.10;99.90;;;;;;5092983;28;20069;-75
2023/09/05 03:12:24;;;;;;;13.35;8.52;;;17.10;99.90;;;;;;5088700;28;20024;-74
2023/09/05 03:14:50;;;;;;;11.05;8.77;;;17.10;99.90;;;;;;5089567;28;20845;-75
2023/09/05 03:17:15;;;;;;;14.00;9.18;;;17.10;99.90;;;;;;5089845;28;20035;-74
2023/09/05 03:19:41;;;;;;;14.38;9.40;;;17.10;99.90;;;;;;5083828;28;20056;-74
2023/09/05 03:22:07;;;;;;;12.02;8.90;;;17.10;99.90;;;;;;5088026;28;20439;-74
2023/09/05 03:24:34;;;;;;;10.80;8.77;;;17.10;99.90;;;;;;5094982;28;20012;-74
2023/09/05 03:26:59;;;;;;;11.00;8.52;;;17.10;99.90;;;;;;5087469;28;20502;-75
2023/09/05 03:29:25;;;;;;;10.85;8.50;;;17.10;99.90;;;;;;5087908;28;20024;-75
2023/09/05 03:31:52;;;;;;;11.65;8.20;;;17.10;99.90;;;;;;5088155;28;20024;-74
2023/09/05 03:34:18;;;;;;;10.88;8.70;;;17.10;99.90;;;;;;5085231;28;20077;-74
2023/09/05 03:36:43;;;;;;;10.27;8.75;;;17.10;99.90;;;;;;5085159;28;20024;-75
2023/09/05 03:39:09;;;;;;;13.50;9.20;;;17.10;99.90;;;;;;5074738;28;20444;-75
2023/09/05 03:41:35;;;;;;;10.95;8.98;;;17.10;99.90;;;;;;5087296;28;20031;-75
2023/09/05 03:44:01;;;;;;;12.60;8.88;;;17.10;99.90;;;;;;5092173;28;20073;-74
2023/09/05 03:46:26;;;;;;;10.88;8.60;;;17.10;99.90;;;;;;5082300;28;20025;-75
2023/09/05 03:48:53;;;;;;;12.77;8.98;;;17.10;99.90;;;;;;5092818;28;20027;-75
2023/09/05 03:51:19;;;;;;;13.20;9.70;;;17.10;99.90;;;;;;5094876;28;20024;-75
2023/09/05 03:53:44;;;;;;;14.68;9.20;;;17.00;99.90;;;;;;5091781;28;20017;-75
2023/09/05 03:56:10;;;;;;;13.10;9.02;;;17.00;99.90;;;;;;5076369;28;20507;-75
2023/09/05 03:58:38;;;;;;;14.77;9.77;;;17.00;99.90;;;;;;5079854;28;20055;-74
2023/09/05 04:01:04;;;;;;;14.88;9.85;;;17.00;99.90;;;;;;5078528;28;20028;-75
2023/09/05 04:03:32;;;;;;;14.95;10.20;;;17.00;99.90;;;;;;5092780;28;20065;-74
2023/09/05 04:06:00;;;;;;;12.73;9.15;;;17.00;99.90;;;;;;5082340;28;20059;-75
2023/09/05 04:08:27;;;;;;;12.07;9.80;;;16.90;99.90;;;;;;5092373;28;20122;-75
2023/09/05 04:11:02;;;;;;;13.98;9.85;;;16.90;99.90;;;;;;5081791;28;20091;-75
2023/09/05 04:13:28;;;;;;;14.98;9.77;;;16.90;99.90;;;;;;5084231;28;20099;-75
2023/09/05 04:15:53;;;;;;;13.45;10.02;;;16.90;99.90;;;;;;5091436;28;20145;-75
2023/09/05 04:18:19;;;;;;;12.65;10.38;;;16.90;99.90;;;;;;5081404;28;20406;-75
2023/09/05 04:20:45;;;;;;;14.27;10.38;;;16.80;99.90;;;;;;5079904;28;20095;-75
2023/09/05 04:23:11;;;;;;;15.70;10.63;;;16.80;99.90;;;;;;5086745;28;20028;-75
2023/09/05 04:25:40;;;;;;;15.52;10.23;;;16.80;99.90;;;;;;5085456;28;20050;-77
2023/09/05 04:28:06;;;;;;;13.57;9.73;;;16.80;99.90;;;;;;5079745;28;20044;-75
2023/09/05 04:30:35;;;;;;;13.68;9.65;;;16.80;99.90;;;;;;5081614;28;20023;-74
2023/09/05 04:33:03;;;;;;;11.50;9.65;;;16.80;99.90;;;;;;5084043;28;20046;-75
2023/09/05 04:35:29;;;;;;;12.55;9.23;;;16.80;99.90;;;;;;5073496;28;20067;-75
2023/09/05 04:37:55;;;;;;;12.77;9.43;;;16.70;99.90;;;;;;5087033;28;20051;-74
2023/09/05 04:40:21;;;;;;;12.40;9.55;;;16.70;99.90;;;;;;5087050;28;20430;-74
2023/09/05 04:42:47;;;;;;;12.65;9.80;;;16.70;99.90;;;;;;5084721;28;20103;-74
2023/09/05 04:45:12;;;;;;;13.73;9.55;;;16.70;99.90;;;;;;5079370;28;20069;-75
2023/09/05 04:47:38;;;;;;;11.07;8.77;;;16.70;99.90;;;;;;5084591;28;20039;-74
2023/09/05 04:50:05;;;;;;;13.70;9.88;;;16.60;99.90;;;;;;5089977;28;20013;-73
2023/09/05 04:52:30;;;;;;;17.75;10.10;;;16.60;99.90;;;;;;5083617;28;20459;-74
2023/09/05 04:54:58;;;;;;;14.82;10.25;;;16.60;99.90;;;;;;5088903;28;20094;-74
2023/09/05 04:57:25;;;;;;;13.23;9.30;;;16.60;99.90;;;;;;5090830;28;20103;-73
2023/09/05 04:59:56;;;;;;;13.35;10.10;;;16.60;99.90;;;;;;5089761;28;20406;-73
2023/09/05 05:02:23;;;;;;;15.65;10.30;;;16.60;99.90;;;;;;5091137;28;20024;-73
2023/09/05 05:04:49;;;;;;;15.40;10.95;;;16.60;99.90;;;;;;5083254;28;20036;-73
2023/09/05 05:07:15;;;;;;;15.07;10.43;;;16.60;99.90;;;;;;5082012;28;20098;-74
2023/09/05 05:09:41;;;;;;;18.45;10.07;;;16.60;99.90;;;;;;5078107;28;20466;-74
2023/09/05 05:12:07;;;;;;;14.50;10.07;;;16.60;99.90;;;;;;5085100;28;20016;-73
2023/09/05 05:14:33;;;;;;;17.80;10.52;;;16.60;99.90;;;;;;5077671;28;20025;-73
2023/09/05 05:16:58;;;;;;;13.57;10.00;;;16.60;99.90;;;;;;5077619;28;20123;-74
2023/09/05 05:19:24;;;;;;;12.93;10.27;;;16.60;99.90;;;;;;5083197;28;20016;-74
2023/09/05 05:21:51;;;;;;;16.02;10.30;;;16.60;99.90;;;;;;5081141;28;20020;-74
2023/09/05 05:24:16;;;;;;;17.35;10.45;;;16.60;99.90;;;;;;5081386;28;20040;-73
2023/09/05 05:26:43;;;;;;;15.75;10.30;;;16.60;99.90;;;;;;5086329;28;20067;-74
2023/09/05 05:29:09;;;;;;;18.05;9.65;;;16.60;99.90;;;;;;5082645;28;20012;-75
2023/09/05 05:31:35;;;;;;;14.55;10.10;;;16.60;99.90;;;;;;5073792;28;20127;-75
2023/09/05 05:34:00;;;;;;;19.25;10.90;;;16.60;99.90;;;;;;5088491;28;20016;-74
2023/09/05 05:36:29;;;;;;;19.48;10.55;;;16.60;99.90;;;;;;5080086;28;20458;-74
2023/09/05 05:38:54;;;;;;;13.65;10.25;;;16.60;99.90;;;;;;5082630;28;20028;-75
2023/09/05 05:41:20;;;;;;;16.77;10.70;;;16.50;99.90;;;;;;5082736;28;20418;-75
2023/09/05 05:43:45;;;;;;;18.83;10.75;;;16.50;99.90;;;;;;5083465;28;20093;-74
2023/09/05 05:46:12;;;;;;;15.65;10.45;;;16.50;99.90;;;;;;5082492;28;20032;-71
2023/09/05 05:48:38;;;;;;;16.90;10.18;;;16.50;99.90;;;;;;5088724;28;20112;-73
2023/09/05 05:51:04;;;;;;;16.55;10.40;;;16.50;99.90;;;;;;5082969;28;20036;-74
2023/09/05 05:53:30;;;;;;;14.57;10.70;;;16.60;99.90;;;;;;5087489;28;20479;-74
2023/09/05 05:55:59;;;;;;;16.83;10.95;;;16.60;99.90;;;;;;5087838;28;20509;-73
2023/09/05 05:58:25;;;;;;;16.02;10.40;;;16.60;99.90;;;;;;5087307;28;20093;-74
2023/09/05 06:00:50;;;;;;;16.48;10.48;;;16.60;99.90;;;;;;5075379;28;20565;-74
2023/09/05 06:03:20;;;;;;;14.52;10.02;;;16.70;99.90;;;;;;5086717;28;20024;-74
2023/09/05 06:05:46;;;;;;;14.10;10.13;;;16.70;99.90;;;;;;5082424;28;20025;-74
2023/09/05 06:08:13;;;;;;;15.70;10.32;;;16.80;99.90;;;;;;5089485;28;20078;-74
2023/09/05 06:10:38;;;;;;;17.08;10.40;;;16.80;99.90;;;;;;5076017;28;20445;-74
2023/09/05 06:13:05;;;;;;;14.00;10.43;;;16.80;99.90;;;;;;5077832;28;20024;-74
2023/09/05 06:15:31;;;;;;;16.73;10.25;;;16.80;99.90;;;;;;5082967;28;20517;-74
2023/09/05 06:17:57;;;;;;;16.00;10.57;;;16.90;99.90;;;;;;5078264;28;20074;-74
2023/09/05 06:20:22;;;;;;;15.98;10.63;;;16.90;99.90;;;;;;5088360;28;20024;-74
2023/09/05 06:22:49;;;;;;;15.55;9.73;;;16.90;99.90;;;;;;5076213;28;20032;-74
2023/09/05 06:25:16;;;;;;;15.45;10.68;;;17.00;99.90;;;;;;5083876;28;20016;-74
2023/09/05 06:27:43;;;;;;;14.60;10.10;;;17.00;99.90;;;;;;5089743;28;20032;-74
2023/09/05 06:30:10;;;;;;;14.57;9.93;;;17.10;99.90;;;;;;5075106;28;20012;-74
2023/09/05 06:32:35;;;;;;;14.85;10.05;;;17.10;99.90;;;;;;5080448;28;20020;-74
2023/09/05 06:35:01;;;;;;;16.33;9.82;;;17.10;99.90;;;;;;5086539;28;20375;-74
2023/09/05 06:37:29;;;;;;;14.77;9.50;;;17.20;99.90;;;;;;5090382;28;20062;-74
2023/09/05 06:39:55;;;;;;;17.25;10.05;;;17.20;99.90;;;;;;5088971;28;20012;-74
2023/09/05 06:42:21;;;;;;;13.38;9.27;;;17.30;99.90;;;;;;5075950;28;20071;-74
2023/09/05 06:44:48;;;;;;;13.80;9.93;;;17.30;99.90;;;;;;5084983;28;20023;-74
2023/09/05 06:47:13;;;;;;;13.85;9.63;;;17.40;99.90;;;;;;5083860;28;20115;-74
2023/09/05 06:49:39;;;;;;;13.68;9.23;;;17.40;99.90;;;;;;5083545;28;20141;-74
2023/09/05 06:52:05;;;;;;;11.93;8.98;;;17.50;99.90;;;;;;5078933;28;20102;-74
2023/09/05 06:54:31;;;;;;;14.75;10.07;;;17.50;99.90;;;;;;5075404;28;20530;-74
2023/09/05 06:56:57;;;;;;;12.55;8.82;;;17.50;99.90;;;;;;5090336;28;20349;-74
2023/09/05 06:59:22;;;;;;;13.55;9.27;;;17.60;99.90;;;;;;5085217;28;20043;-74
2023/09/05 07:01:48;;;;;;;13.63;8.88;;;17.60;99.90;;;;;;5083309;28;20674;-74
2023/09/05 07:04:14;;;;;;;14.05;9.13;;;17.70;99.90;;;;;;5085517;28;20024;-74
2023/09/05 07:06:42;;;;;;;14.52;9.80;;;17.70;99.90;;;;;;5089538;28;20028;-74
2023/09/05 07:09:08;;;;;;;15.13;10.23;;;17.80;99.90;;;;;;5074731;28;20087;-74
2023/09/05 07:11:34;;;;;;;17.17;10.32;;;17.80;99.90;;;;;;5079368;28;20458;-74
2023/09/05 07:14:00;;;;;;;13.13;9.48;;;17.90;99.90;;;;;;5089177;28;20360;-74
2023/09/05 07:16:26;;;;;;;13.35;9.05;;;17.90;99.90;;;;;;5083218;28;20024;-74
2023/09/05 07:18:52;;;;;;;11.50;8.13;;;18.00;99.90;;;;;;5088590;28;20135;-74
2023/09/05 07:21:17;;;;;;;10.95;7.90;;;18.10;99.90;;;;;;5085695;28;20329;-74
2023/09/05 07:23:43;;;;;;;13.35;8.40;;;18.20;99.90;;;;;;5070389;28;20082;-74
2023/09/05 07:26:09;;;;;;;13.52;8.10;;;18.20;99.90;;;;;;5088125;28;20032;-74
2023/09/05 07:28:34;;;;;;;12.00;7.38;;;18.30;99.90;;;;;;5079778;28;20091;-74
2023/09/05 07:31:01;;;;;;;10.38;7.55;;;18.40;99.90;;;;;;5080769;28;20047;-74
2023/09/05 07:33:26;;;;;;;11.82;7.00;;;18.50;99.90;;;;;;5081390;28;20013;-74
2023/09/05 07:35:52;;;;;;;11.30;7.65;;;18.60;99.90;;;;;;5074328;28;20028;-74
2023/09/05 07:38:21;;;;;;;10.30;7.07;;;18.70;99.90;;;;;;5085351;28;20051;-74
2023/09/05 07:41:09;;;;;;;10.20;7.10;;;18.80;99.90;;;;;;5082711;28;20459;-74
2023/09/05 07:43:35;;;;;;;9.93;6.43;;;18.90;99.90;;;;;;5087409;28;20013;-74
2023/09/05 07:46:01;;;;;;;11.70;6.85;;;19.10;99.90;;;;;;5085632;28;20031;-74
2023/09/05 07:48:27;;;;;;;10.65;5.82;;;19.20;99.90;;;;;;5080882;28;20510;-74
2023/09/05 07:51:04;;;;;;;14.38;7.28;;;19.30;99.90;;;;;;5084873;28;20013;-74
2023/09/05 07:53:32;;;;;;;8.75;6.30;;;19.50;99.90;;;;;;5088290;28;20039;-74
2023/09/05 07:55:57;;;;;;;9.63;5.60;;;19.60;99.90;;;;;;5092081;28;20084;-74
2023/09/05 07:58:23;;;;;;;8.95;6.15;;;19.80;99.90;;;;;;5083490;28;20453;-74
2023/09/05 08:00:49;;;;;;;10.60;6.40;;;19.90;99.90;;;;;;5078048;28;20012;-74
2023/09/05 08:03:16;;;;;;;9.52;6.45;;;20.10;99.90;;;;;;5086815;28;20020;-74
2023/09/05 08:05:42;;;;;;;12.93;6.10;;;20.20;99.90;;;;;;5084645;28;20059;-74
2023/09/05 08:08:07;;;;;;;9.52;5.47;;;20.40;99.90;;;;;;5088673;28;20505;-74
2023/09/05 08:10:33;;;;;;;7.95;5.35;;;20.60;99.90;;;;;;5080036;28;20047;-74
2023/09/05 08:12:59;;;;;;;11.35;5.63;;;20.80;99.90;;;;;;5080234;28;20020;-74
2023/09/05 08:15:25;;;;;;;9.73;5.90;;;21.00;99.90;;;;;;5087823;28;20084;-74
2023/09/05 08:17:51;;;;;;;9.23;5.25;;;21.10;99.90;;;;;;5092715;28;20058;-74
2023/09/05 08:20:17;;;;;;;12.75;5.47;;;21.30;99.90;;;;;;5090665;28;20028;-74
2023/09/05 08:22:46;;;;;;;11.73;5.82;;;21.50;99.90;;;;;;5089615;28;20020;-74
2023/09/05 08:25:15;;;;;;;6.97;5.18;;;21.70;99.90;;;;;;5077279;28;20017;-74
2023/09/05 08:27:43;;;;;;;7.43;5.03;;;21.80;99.90;;;;;;5076990;28;20028;-74
2023/09/05 08:30:13;;;;;;;8.52;5.68;;;22.00;99.90;;;;;;5072995;28;20021;-74
2023/09/05 08:32:39;;;;;;;6.57;4.90;;;22.10;99.90;;;;;;5088005;28;20036;-74
2023/09/05 08:35:09;;;;;;;5.82;4.32;;;22.30;99.90;;;;;;5084101;28;20046;-74
2023/09/05 08:37:35;;;;;;;7.95;4.88;;;22.50;99.90;;;;;;5084121;28;21209;-74
2023/09/05 08:40:01;;;;;;;7.82;4.70;;;22.70;99.90;;;;;;5092119;28;20077;-74
2023/09/05 08:42:31;;;;;;;10.35;4.90;;;22.90;99.90;;;;;;5085155;28;20293;-74
2023/09/05 08:44:59;;;;;;;7.45;4.45;;;23.10;99.90;;;;;;5087448;28;20428;-74
2023/09/05 08:47:28;;;;;;;9.55;4.63;;;23.30;99.90;;;;;;5080615;28;20024;-74
2023/09/05 08:49:54;;;;;;;9.90;5.18;;;23.50;99.90;;;;;;5091605;28;20023;-74
2023/09/05 08:52:21;;;;;;;8.30;4.80;;;23.60;99.90;;;;;;5089868;28;20107;-74
2023/09/05 08:54:50;;;;;;;7.15;5.22;;;23.90;99.90;;;;;;5090470;28;20019;-74
2023/09/05 08:57:17;;;;;;;6.97;4.80;;;24.00;99.90;;;;;;5090326;28;20035;-74
2023/09/05 08:59:43;;;;;;;8.57;4.57;;;24.20;99.90;;;;;;5070244;28;20306;-74
2023/09/05 09:02:16;;;;;;;15.43;4.95;;;24.30;99.90;;;;;;5087742;28;20481;-74
2023/09/05 09:04:57;;;;;;;13.70;5.10;;;24.40;99.90;;;;;;5091883;28;20375;-74
2023/09/05 09:07:27;;;;;;;7.43;4.75;;;24.50;99.90;;;;;;5091494;28;20040;-74
2023/09/05 09:09:53;;;;;;;7.68;4.65;;;24.60;99.90;;;;;;5082404;28;20079;-74
2023/09/05 09:12:29;;;;;;;7.68;4.97;;;24.80;99.90;;;;;;5085536;28;20031;-74
2023/09/05 09:14:54;;;;;;;8.20;4.78;;;24.90;99.90;;;;;;5084962;28;20020;-74
2023/09/05 09:17:22;;;;;;;7.97;4.50;;;25.00;99.90;;;;;;5087270;28;20024;-74
2023/09/05 09:19:48;;;;;;;7.45;5.10;;;25.10;99.90;;;;;;5089291;28;20471;-74
2023/09/05 09:22:14;;;;;;;7.80;5.03;;;25.20;99.90;;;;;;5080637;28;20038;-74
2023/09/05 09:24:39;;;;;;;7.20;4.80;;;25.40;99.90;;;;;;5076679;28;20054;-74
2023/09/05 09:27:06;;;;;;;7.53;4.10;;;25.50;99.90;;;;;;5080316;28;20025;-74
2023/09/05 09:29:34;;;;;;;9.60;4.97;;;25.60;99.90;;;;;;5073215;28;20480;-74
2023/09/05 09:32:06;;;;;;;9.10;4.68;;;25.70;99.90;;;;;;5078140;28;20012;-74
2023/09/05 09:34:35;;;;;;;9.90;4.57;;;25.80;99.90;;;;;;5090018;28;20052;-74
2023/09/05 09:37:01;;;;;;;6.85;4.65;;;25.90;99.90;;;;;;5082314;28;20107;-74
2023/09/05 09:39:30;;;;;;;8.90;4.50;;;26.00;99.90;;;;;;5085039;28;20115;-74
2023/09/05 09:41:59;;;;;;;8.65;4.60;;;26.20;99.90;;;;;;5090606;28;20110;-74
2023/09/05 09:44:26;;;;;;;7.97;4.07;;;26.40;99.90;;;;;;5087591;28;20051;-74
2023/09/05 09:46:57;;;;;;;5.55;4.30;;;26.40;99.90;;;;;;5075098;28;20035;-74
2023/09/05 09:49:28;;;;;;;6.75;4.38;;;26.50;99.90;;;;;;5083628;28;20030;-74
2023/09/05 09:52:02;;;;;;;9.73;4.40;;;26.50;99.90;;;;;;5080399;28;20017;-74
2023/09/05 09:54:38;;;;;;;6.27;4.03;;;26.60;99.90;;;;;;5084187;28;20028;-74
2023/09/05 09:57:05;;;;;;;8.38;3.88;;;26.60;99.90;;;;;;5079904;28;20027;-74
2023/09/05 09:59:35;;;;;;;6.97;4.07;;;26.70;99.90;;;;;;5084243;28;20437;-74
2023/09/05 10:02:09;;;;;;;8.60;4.75;;;26.90;99.90;;;;;;5085128;28;20410;-75
2023/09/05 10:04:38;;;;;;;6.88;4.28;;;27.00;99.90;;;;;;5090160;28;20073;-75
2023/09/05 10:07:06;;;;;;;9.93;4.00;;;26.90;99.90;;;;;;5089838;28;20028;-76
2023/09/05 10:09:39;;;;;;;9.05;3.97;;;27.00;99.90;;;;;;5070499;28;20021;-77
2023/09/05 10:12:06;;;;;;;5.63;3.60;;;27.10;99.90;;;;;;5083733;28;20024;-76
2023/09/05 10:14:33;;;;;;;7.05;3.80;;;27.20;99.90;;;;;;5081347;28;20044;-76
2023/09/05 10:17:00;;;;;;;6.65;3.45;;;27.20;99.90;;;;;;5082747;28;20020;-76
2023/09/05 10:19:27;;;;;;;5.78;3.88;;;27.30;99.90;;;;;;5090438;28;20055;-77
2023/09/05 10:21:57;;;;;;;4.68;3.40;;;27.40;99.90;;;;;;5087035;28;20024;-75
2023/09/05 10:24:25;;;;;;;6.68;3.45;;;27.60;99.90;;;;;;5088976;28;20032;-76
2023/09/05 10:26:51;;;;;;;4.90;3.70;;;27.70;99.90;;;;;;5088122;28;20062;-76
2023/09/05 10:29:48;;;;;;;6.32;3.55;;;27.70;99.90;;;;;;5090310;28;20028;-76
2023/09/05 10:32:19;;;;;;;6.03;3.40;;;27.80;99.90;;;;;;5084715;28;20028;-76
2023/09/05 10:34:45;;;;;;;9.38;3.05;;;27.90;99.90;;;;;;5083838;28;20032;-76
2023/09/05 10:37:12;;;;;;;6.00;3.30;;;28.00;99.90;;;;;;5080766;28;20028;-76
2023/09/05 10:39:44;;;;;;;6.90;3.60;;;28.10;99.90;;;;;;5081251;28;20462;-76
2023/09/05 10:42:12;;;;;;;4.93;3.08;;;28.20;99.90;;;;;;5081830;28;20024;-76
2023/09/05 10:44:46;;;;;;;5.75;3.40;;;28.20;99.90;;;;;;5081948;28;20454;-76
2023/09/05 10:47:31;;;;;;;4.32;3.17;;;28.30;99.90;;;;;;5081822;28;20021;-76
2023/09/05 10:49:59;;;;;;;6.40;2.92;;;28.40;99.70;;;;;;5076901;28;20060;-75
2023/09/05 10:52:27;;;;;;;5.90;3.00;;;28.50;99.60;;;;;;5075906;28;20020;-76
2023/09/05 10:54:54;;;;;;;6.07;3.13;;;28.60;99.10;;;;;;5088707;28;20325;-77
2023/09/05 10:57:34;;;;;;;6.70;2.97;;;28.70;98.90;;;;;;5085456;28;20509;-76
2023/09/05 11:00:08;;;;;;;7.68;3.40;;;28.80;98.80;;;;;;5085720;28;20063;-77
2023/09/05 11:02:34;;;;;;;7.43;3.47;;;28.80;98.50;;;;;;5079100;28;20441;-78
2023/09/05 11:05:00;;;;;;;4.30;3.65;;;28.80;98.50;;;;;;5088398;28;20025;-76
2023/09/05 11:07:31;;;;;;;10.70;3.80;;;28.80;98.50;;;;;;5085269;28;20028;-77
2023/09/05 11:09:57;;;;;;;9.35;4.60;;;28.80;98.60;;;;;;5085782;28;20020;-76
2023/09/05 11:12:24;;;;;;;6.53;3.60;;;28.90;98.80;;;;;;5087160;28;20082;-76
2023/09/05 11:14:53;;;;;;;7.60;4.10;;;28.90;99.10;;;;;;5082225;28;20024;-76
2023/09/05 11:17:19;;;;;;;6.07;3.80;;;29.00;99.00;;;;;;5091991;28;20118;-77
2023/09/05 11:19:50;;;;;;;7.43;4.18;;;29.10;98.80;;;;;;5083881;28;20023;-75
2023/09/05 11:22:22;;;;;;;6.47;4.63;;;29.10;98.30;;;;;;5081930;28;20024;-76
2023/09/05 11:24:58;;;;;;;5.47;4.00;;;29.10;98.20;;;;;;5081727;28;20027;-77
2023/09/05 11:27:25;;;;;;;6.97;3.85;;;29.10;98.00;;;;;;5091234;28;20036;-77
2023/09/05 11:29:57;;;;;;;9.68;4.68;;;29.10;97.80;;;;;;5092580;28;20031;-77
2023/09/05 11:32:31;;;;;;;7.80;4.00;;;29.10;97.20;;;;;;5090980;28;20059;-75
2023/09/05 11:34:57;;;;;;;8.13;4.13;;;29.10;97.20;;;;;;5090357;28;20207;-76
2023/09/05 11:37:23;;;;;;;7.82;3.75;;;29.20;97.30;;;;;;5091002;28;20495;-77
2023/09/05 11:39:50;;;;;;;6.32;4.30;;;29.20;97.10;;;;;;5079123;28;20051;-76
2023/09/05 11:42:32;;;;;;;13.13;4.53;;;29.30;96.90;;;;;;5086918;28;20023;-77
2023/09/05 11:44:58;;;;;;;9.85;3.88;;;29.30;96.60;;;;;;5075210;28;20017;-78
2023/09/05 11:47:26;;;;;;;8.88;3.70;;;29.30;97.00;;;;;;5087313;28;20052;-77
2023/09/05 11:49:53;;;;;;;7.07;3.90;;;29.40;96.90;;;;;;5086714;28;20066;-78
2023/09/05 11:52:20;;;;;;;7.32;4.15;;;29.40;96.50;;;;;;5090546;28;20073;-79
2023/09/05 11:54:51;;;;;;;6.80;3.67;;;29.50;96.40;;;;;;5088577;28;20419;-79
2023/09/05 11:57:19;;;;;;;6.45;3.50;;;29.50;96.00;;;;;;5083937;28;20047;-78
2023/09/05 11:59:46;;;;;;;8.13;3.63;;;29.50;96.10;;;;;;5095564;28;20042;-80
2023/09/05 12:02:18;;;;;;;6.97;3.33;;;29.60;95.90;;;;;;5097711;28;20036;-80
2023/09/05 12:04:46;;;;;;;7.45;3.30;;;29.70;95.70;;;;;;5092899;28;20035;-79
2023/09/05 12:07:12;;;;;;;7.93;3.70;;;29.70;95.50;;;;;;5093251;28;20024;-80
2023/09/05 12:09:38;;;;;;;9.15;4.43;;;29.70;95.10;;;;;;5095639;28;20496;-80
2023/09/05 12:12:11;;;;;;;7.35;3.40;;;29.80;95.10;;;;;;5095717;28;20048;-80
2023/09/05 12:14:54;;;;;;;8.70;3.42;;;29.90;95.10;;;;;;5097320;28;20047;-81
2023/09/05 12:17:22;;;;;;;7.32;3.40;;;30.00;94.60;;;;;;5093205;28;20021;-79
2023/09/05 12:19:49;;;;;;;8.77;3.33;;;30.00;94.40;;;;;;5095418;28;20024;-78
2023/09/05 12:22:29;;;;;;;10.77;3.60;;;30.10;94.40;;;;;;5093620;28;20024;-78
2023/09/05 12:25:14;;;;;;;7.05;3.15;;;30.20;93.90;;;;;;5109279;27;20028;-79
2023/09/05 12:27:40;;;;;;;;;;;30.20;93.80;;;;;;5087834;28;20029;-78
2023/09/05 12:30:25;;;;;;;7.35;3.10;;;30.20;93.70;;;;;;5092091;28;20354;-79
2023/09/05 12:32:54;;;;;;;6.65;3.08;;;30.40;93.50;;;;;;5088950;28;20103;-80
2023/09/05 12:35:20;;;;;;;6.72;2.95;;;30.40;93.40;;;;;;5112859;27;20029;-78
2023/09/05 12:37:47;;;;;;;9.38;3.38;;;30.50;93.60;;;;;;5091969;28;20028;-81
2023/09/05 12:40:15;;;;;;;6.88;3.22;;;30.60;93.30;;;;;;5101150;28;20020;-79
2023/09/05 12:42:44;;;;;;;8.43;3.78;;;30.60;93.20;;;;;;5089371;28;20017;-80